Time;durP1;ratioP1;P1;durP2;ratioP2;P2;SDS_P1;SDS_P2;PMS_P1;PMS_P2;Temp;Humidity;BMP_temperature;BMP_pressure;BME280_temperature;BME280_humidity;BME280_pressure;Samples;Min_cycle;Max_cycle;Signal;HPM_P1;HPM_P2
2021/06/11 00:02:02;;;;;;;14.77;13.20;;;18.80;99.90;;;;;;5094418;28;20225;-51
2021/06/11 00:04:28;;;;;;;13.13;11.97;;;18.70;99.90;;;;;;5094770;28;20212;-54
2021/06/11 00:06:54;;;;;;;12.90;11.80;;;18.80;99.90;;;;;;5094582;28;20498;-51
2021/06/11 00:09:19;;;;;;;13.50;12.20;;;18.70;99.90;;;;;;5094238;28;20196;-51
2021/06/11 00:11:48;;;;;;;14.03;12.73;;;18.70;99.90;;;;;;5093859;28;20177;-50
2021/06/11 00:14:14;;;;;;;17.30;15.70;;;18.70;99.90;;;;;;5094319;28;20197;-50
2021/06/11 00:16:40;;;;;;;14.33;13.23;;;18.60;99.90;;;;;;5094419;28;20410;-50
2021/06/11 00:19:06;;;;;;;15.73;14.43;;;18.60;99.90;;;;;;5094079;28;20211;-49
2021/06/11 00:21:31;;;;;;;12.30;11.20;;;18.60;99.90;;;;;;5093973;28;20213;-50
2021/06/11 00:23:57;;;;;;;12.67;11.67;;;18.60;99.90;;;;;;5093690;28;20435;-52
2021/06/11 00:26:23;;;;;;;12.77;11.57;;;18.60;99.90;;;;;;5094505;28;20173;-50
2021/06/11 00:28:48;;;;;;;10.90;10.10;;;18.50;99.90;;;;;;5092662;28;20173;-49
2021/06/11 00:31:14;;;;;;;12.40;11.30;;;18.60;99.90;;;;;;5093868;28;20266;-49
2021/06/11 00:33:39;;;;;;;12.40;11.30;;;18.60;99.90;;;;;;5093645;28;20279;-50
2021/06/11 00:36:05;;;;;;;12.03;10.73;;;18.50;99.90;;;;;;5093907;28;20618;-49
2021/06/11 00:38:32;;;;;;;11.10;10.10;;;18.40;99.90;;;;;;5093619;28;20185;-49
2021/06/11 00:40:58;;;;;;;11.63;10.63;;;18.50;99.90;;;;;;5093966;28;20414;-49
2021/06/11 00:43:24;;;;;;;11.90;10.90;;;18.50;99.90;;;;;;5093657;28;20431;-52
2021/06/11 00:45:50;;;;;;;11.30;10.40;;;18.50;99.90;;;;;;5093860;28;20402;-54
2021/06/11 00:48:16;;;;;;;11.97;10.87;;;18.40;99.90;;;;;;5094103;28;20478;-53
2021/06/11 00:50:41;;;;;;;14.27;10.10;;;18.40;99.90;;;;;;5093844;28;20626;-50
2021/06/11 00:53:09;;;;;;;10.87;9.80;;;18.40;99.90;;;;;;5093806;28;20166;-50
2021/06/11 00:55:35;;;;;;;9.93;9.13;;;18.40;99.90;;;;;;5092601;28;20223;-51
2021/06/11 00:58:01;;;;;;;10.60;9.70;;;18.40;99.90;;;;;;5092105;28;20442;-54
2021/06/11 01:00:26;;;;;;;10.07;9.07;;;18.30;99.90;;;;;;5075444;28;20420;-53
2021/06/11 01:02:52;;;;;;;10.57;9.67;;;18.30;99.90;;;;;;5073358;28;20196;-50
2021/06/11 01:05:18;;;;;;;10.90;9.80;;;18.30;99.90;;;;;;5073024;28;20182;-53
2021/06/11 01:07:48;;;;;;;10.00;9.20;;;18.20;99.90;;;;;;5073585;28;20193;-51
2021/06/11 01:10:14;;;;;;;12.00;10.83;;;18.30;99.90;;;;;;5072830;28;20253;-53
2021/06/11 01:12:40;;;;;;;11.10;10.10;;;18.30;99.90;;;;;;5072555;28;20462;-51
2021/06/11 01:15:08;;;;;;;10.07;9.27;;;18.40;99.90;;;;;;5072984;28;20534;-52
2021/06/11 01:17:35;;;;;;;10.53;9.67;;;18.30;99.90;;;;;;5055026;28;20412;-51
2021/06/11 01:20:04;;;;;;;10.73;9.83;;;18.20;99.90;;;;;;5073252;28;20430;-50
2021/06/11 01:22:45;;;;;;;10.50;9.60;;;18.20;99.90;;;;;;5072865;28;20446;-51
2021/06/11 01:25:14;;;;;;;10.03;9.23;;;18.10;99.90;;;;;;5086065;28;20525;-51
2021/06/11 01:27:42;;;;;;;10.97;10.10;;;18.10;99.90;;;;;;5092803;28;20768;-53
2021/06/11 01:30:16;;;;;;;10.83;9.83;;;18.10;99.90;;;;;;5093009;28;20418;-52
2021/06/11 01:32:44;;;;;;;10.03;9.13;;;18.10;99.90;;;;;;5093014;28;20399;-54
2021/06/11 01:35:16;;;;;;;10.87;10.07;;;18.10;99.90;;;;;;5095574;28;20453;-51
2021/06/11 01:37:43;;;;;;;10.53;9.53;;;18.10;99.90;;;;;;5093347;28;20389;-53
2021/06/11 01:40:11;;;;;;;10.67;9.77;;;18.10;99.90;;;;;;5093475;28;20410;-50
2021/06/11 01:42:43;;;;;;;10.87;9.97;;;18.10;99.90;;;;;;5093505;28;20457;-51
2021/06/11 01:45:11;;;;;;;13.93;12.63;;;18.00;99.90;;;;;;5093870;28;21035;-49
2021/06/11 01:47:46;;;;;;;11.10;10.20;;;18.00;99.90;;;;;;5093380;28;20869;-50
2021/06/11 01:50:20;;;;;;;11.77;10.70;;;17.90;99.90;;;;;;5093364;28;20437;-51
2021/06/11 01:52:47;;;;;;;11.00;10.00;;;17.90;99.90;;;;;;5093890;28;20379;-51
2021/06/11 01:55:14;;;;;;;10.20;9.40;;;17.90;99.90;;;;;;5092637;28;20541;-54
2021/06/11 01:57:42;;;;;;;11.27;10.27;;;17.90;99.90;;;;;;5093195;28;20414;-53
2021/06/11 02:00:08;;;;;;;12.00;11.00;;;17.90;99.90;;;;;;5092910;28;20474;-54
2021/06/11 02:02:35;;;;;;;12.93;11.93;;;17.90;99.90;;;;;;5093016;28;20785;-51
2021/06/11 02:05:04;;;;;;;11.63;10.67;;;17.90;99.90;;;;;;5093028;28;20427;-52
2021/06/11 02:07:30;;;;;;;11.10;10.20;;;17.90;99.90;;;;;;5092857;28;20407;-55
2021/06/11 02:09:57;;;;;;;11.30;10.33;;;17.90;99.90;;;;;;5091717;28;20466;-54
2021/06/11 02:12:22;;;;;;;12.20;11.10;;;17.90;99.90;;;;;;5092443;28;20406;-52
2021/06/11 02:14:48;;;;;;;10.33;9.13;;;17.90;99.90;;;;;;5092924;28;20484;-51
2021/06/11 02:17:15;;;;;;;15.77;11.63;;;17.80;99.90;;;;;;5092686;28;20581;-51
2021/06/11 02:19:41;;;;;;;10.80;9.90;;;17.80;99.90;;;;;;5092979;28;20452;-52
2021/06/11 02:22:09;;;;;;;12.00;10.97;;;17.80;99.90;;;;;;5093617;28;20451;-51
2021/06/11 02:24:35;;;;;;;12.77;11.67;;;17.80;99.90;;;;;;5096355;28;20426;-51
2021/06/11 02:27:05;;;;;;;14.17;12.77;;;17.80;99.90;;;;;;5096508;28;20404;-51
2021/06/11 02:29:30;;;;;;;11.20;10.10;;;17.80;99.90;;;;;;5096194;28;20172;-51
2021/06/11 02:31:56;;;;;;;12.23;11.13;;;17.70;99.90;;;;;;5096238;28;20407;-50
2021/06/11 02:34:22;;;;;;;12.63;11.60;;;17.60;99.90;;;;;;5112838;22;20232;-55
2021/06/11 02:36:47;;;;;;;13.10;10.57;;;17.50;99.90;;;;;;5076233;28;20192;-58
2021/06/11 02:39:13;;;;;;;11.73;10.80;;;17.50;99.90;;;;;;5076250;28;20657;-57
2021/06/11 02:41:47;;;;;;;12.53;11.37;;;17.50;99.90;;;;;;5075551;28;20186;-57
2021/06/11 02:44:13;;;;;;;12.83;11.73;;;17.50;99.90;;;;;;5074752;28;20423;-56
2021/06/11 02:46:47;;;;;;;11.67;10.77;;;17.50;99.90;;;;;;5074985;28;20406;-56
2021/06/11 02:49:32;;;;;;;11.10;10.10;;;17.50;99.90;;;;;;5075355;28;20905;-56
2021/06/11 02:52:01;;;;;;;10.90;9.90;;;17.50;99.90;;;;;;5075707;28;20759;-57
2021/06/11 02:54:32;;;;;;;11.50;10.50;;;17.50;99.90;;;;;;5075343;28;20423;-56
2021/06/11 02:57:04;;;;;;;13.23;12.10;;;17.40;99.90;;;;;;5075413;28;20381;-57
2021/06/11 02:59:38;;;;;;;12.43;11.43;;;17.40;99.90;;;;;;5075308;28;20780;-56
2021/06/11 03:02:08;;;;;;;12.87;11.80;;;17.30;99.90;;;;;;5075558;28;20929;-57
2021/06/11 03:04:35;;;;;;;12.77;11.63;;;17.30;99.90;;;;;;5075081;28;20471;-57
2021/06/11 03:07:03;;;;;;;12.37;11.37;;;17.30;99.90;;;;;;5075523;28;20435;-57
2021/06/11 03:09:29;;;;;;;12.37;11.27;;;17.20;99.90;;;;;;5075623;28;20399;-58
2021/06/11 03:11:58;;;;;;;13.13;11.83;;;17.30;99.90;;;;;;5075288;28;20491;-56
2021/06/11 03:14:26;;;;;;;11.40;10.50;;;17.40;99.90;;;;;;5074918;28;20515;-58
2021/06/11 03:16:57;;;;;;;12.20;11.20;;;17.50;99.90;;;;;;5074951;28;20517;-54
2021/06/11 03:19:27;;;;;;;12.30;11.10;;;17.50;99.90;;;;;;5074692;28;20466;-54
2021/06/11 03:21:58;;;;;;;12.83;11.63;;;17.50;99.90;;;;;;5074723;28;20983;-57
2021/06/11 03:24:36;;;;;;;10.53;9.70;;;17.40;99.90;;;;;;5056862;28;20520;-57
2021/06/11 03:27:12;;;;;;;10.90;9.97;;;17.40;99.90;;;;;;5075379;28;20475;-57
2021/06/11 03:29:48;;;;;;;11.43;10.43;;;17.50;99.90;;;;;;5077058;28;20396;-57
2021/06/11 03:32:22;;;;;;;15.43;14.13;;;17.40;99.90;;;;;;5075031;28;20474;-57
2021/06/11 03:34:50;;;;;;;11.30;10.37;;;17.40;99.90;;;;;;5073905;28;20457;-57
2021/06/11 03:37:17;;;;;;;14.60;13.27;;;17.50;99.90;;;;;;5074614;28;20418;-57
2021/06/11 03:39:49;;;;;;;11.90;10.90;;;17.50;99.90;;;;;;5074516;28;20852;-57
2021/06/11 03:42:16;;;;;;;11.07;10.17;;;17.50;99.90;;;;;;5074694;28;20970;-55
2021/06/11 03:44:45;;;;;;;11.07;9.97;;;17.50;99.90;;;;;;5074353;28;20785;-57
2021/06/11 03:47:13;;;;;;;11.77;10.80;;;17.50;99.90;;;;;;5074334;28;20453;-57
2021/06/11 03:49:44;;;;;;;12.03;11.03;;;17.50;99.90;;;;;;5072117;28;20426;-56
2021/06/11 03:52:12;;;;;;;12.00;11.00;;;17.40;99.90;;;;;;5074203;28;21023;-58
2021/06/11 03:54:42;;;;;;;12.17;11.00;;;17.30;99.90;;;;;;5074199;28;20434;-58
2021/06/11 03:57:09;;;;;;;13.00;11.80;;;17.20;99.90;;;;;;5074800;28;20388;-58
2021/06/11 03:59:35;;;;;;;12.63;11.57;;;17.20;99.90;;;;;;5073728;28;20411;-58
2021/06/11 04:02:02;;;;;;;13.37;12.10;;;17.20;99.90;;;;;;5074290;28;20447;-58
2021/06/11 04:04:28;;;;;;;11.47;10.57;;;17.30;99.90;;;;;;5073709;28;20616;-56
2021/06/11 04:07:17;;;;;;;12.57;11.40;;;17.30;99.90;;;;;;5074238;28;20800;-58
2021/06/11 04:09:47;;;;;;;11.77;10.77;;;17.40;99.90;;;;;;5074246;28;20154;-56
2021/06/11 04:12:22;;;;;;;12.53;11.53;;;17.30;99.90;;;;;;5074145;28;20418;-56
2021/06/11 04:14:51;;;;;;;13.20;12.10;;;17.50;99.90;;;;;;5073489;28;20422;-58
2021/06/11 04:17:30;;;;;;;12.63;11.63;;;17.60;99.90;;;;;;5073816;28;20400;-58
2021/06/11 04:19:58;;;;;;;11.73;10.63;;;17.70;99.90;;;;;;5074300;28;20470;-58
2021/06/11 04:22:29;;;;;;;12.60;11.50;;;17.80;99.90;;;;;;5073840;28;20450;-57
2021/06/11 04:24:57;;;;;;;11.63;10.63;;;17.90;99.90;;;;;;5073695;28;20431;-56
2021/06/11 04:27:23;;;;;;;14.13;12.93;;;17.90;99.90;;;;;;5073639;28;20404;-58
2021/06/11 04:29:49;;;;;;;13.20;11.90;;;17.90;99.90;;;;;;5073417;28;20396;-58
2021/06/11 04:32:16;;;;;;;12.73;11.67;;;17.80;99.90;;;;;;5073761;28;20487;-58
2021/06/11 04:34:42;;;;;;;13.03;11.63;;;17.70;99.90;;;;;;5073020;28;20439;-58
2021/06/11 04:37:08;;;;;;;14.17;12.87;;;17.80;99.90;;;;;;5073541;28;20437;-56
2021/06/11 04:39:34;;;;;;;13.40;12.23;;;17.90;99.90;;;;;;5073588;28;20412;-58
2021/06/11 04:42:00;;;;;;;12.10;11.00;;;17.80;99.90;;;;;;5073505;28;20566;-58
2021/06/11 04:44:25;;;;;;;12.27;11.17;;;17.90;99.90;;;;;;5073052;28;20181;-58
2021/06/11 04:46:51;;;;;;;12.47;11.30;;;18.00;99.90;;;;;;5072618;28;20479;-56
2021/06/11 04:49:17;;;;;;;13.07;11.97;;;18.10;99.90;;;;;;5073581;28;20166;-58
2021/06/11 04:51:43;;;;;;;11.53;10.60;;;18.10;99.90;;;;;;5073483;28;20646;-58
2021/06/11 04:54:09;;;;;;;11.67;10.67;;;18.20;99.90;;;;;;5073171;28;20489;-56
2021/06/11 04:56:34;;;;;;;11.20;10.03;;;18.30;99.90;;;;;;5073100;28;20162;-58
2021/06/11 04:59:01;;;;;;;13.93;12.73;;;18.40;99.90;;;;;;5072939;28;20187;-57
2021/06/11 05:01:26;;;;;;;14.67;13.37;;;18.40;99.90;;;;;;5073353;28;20207;-57
2021/06/11 05:03:52;;;;;;;12.07;11.03;;;18.40;99.90;;;;;;5072727;28;20443;-57
2021/06/11 05:06:18;;;;;;;14.20;13.00;;;18.40;99.90;;;;;;5073301;28;20241;-56
2021/06/11 05:08:45;;;;;;;13.13;11.93;;;18.40;99.90;;;;;;5073302;28;20169;-58
2021/06/11 05:11:11;;;;;;;12.13;10.93;;;18.50;99.90;;;;;;5073213;28;20461;-58
2021/06/11 05:13:36;;;;;;;13.47;12.37;;;18.50;99.90;;;;;;5072559;28;20893;-57
2021/06/11 05:16:03;;;;;;;16.83;11.60;;;18.70;99.90;;;;;;5072917;28;20269;-57
2021/06/11 05:18:30;;;;;;;12.57;11.43;;;18.80;99.90;;;;;;5073016;28;20171;-58
2021/06/11 05:20:57;;;;;;;11.50;10.50;;;18.90;99.90;;;;;;5073038;28;20900;-56
2021/06/11 05:23:23;;;;;;;11.63;10.53;;;18.90;99.90;;;;;;5075354;28;20487;-58
2021/06/11 05:25:49;;;;;;;11.63;10.60;;;19.00;99.90;;;;;;5072629;28;20433;-57
2021/06/11 05:28:16;;;;;;;10.80;9.90;;;19.10;99.90;;;;;;5072591;28;20405;-58
2021/06/11 05:30:42;;;;;;;10.83;9.93;;;19.20;99.90;;;;;;5072974;28;20401;-56
2021/06/11 05:33:08;;;;;;;10.20;9.33;;;19.30;99.90;;;;;;5072492;28;20409;-58
2021/06/11 05:35:34;;;;;;;11.70;10.57;;;19.40;99.90;;;;;;5072409;28;20497;-58
2021/06/11 05:38:02;;;;;;;12.93;11.30;;;19.50;99.90;;;;;;5072881;28;20177;-58
2021/06/11 05:40:28;;;;;;;9.70;8.90;;;19.60;99.90;;;;;;5072823;28;20418;-58
2021/06/11 05:42:53;;;;;;;10.50;9.60;;;19.70;99.90;;;;;;5072267;28;20940;-56
2021/06/11 05:45:19;;;;;;;10.10;9.30;;;19.80;99.90;;;;;;5072464;28;20667;-58
2021/06/11 05:47:45;;;;;;;10.50;9.50;;;19.80;99.90;;;;;;5072422;28;20223;-58
2021/06/11 05:50:10;;;;;;;10.50;9.60;;;20.00;99.90;;;;;;5072259;28;20173;-58
2021/06/11 05:52:36;;;;;;;11.30;10.20;;;20.10;99.90;;;;;;5072696;28;20227;-59
2021/06/11 05:55:04;;;;;;;10.20;9.30;;;20.20;99.90;;;;;;5072745;28;20213;-58
2021/06/11 05:57:30;;;;;;;11.00;10.10;;;20.30;99.90;;;;;;5073724;28;20171;-58
2021/06/11 05:59:57;;;;;;;11.03;9.90;;;20.60;99.90;;;;;;5076328;28;20499;-58
2021/06/11 06:02:23;;;;;;;13.00;11.10;;;20.70;99.90;;;;;;5076246;28;20470;-58
2021/06/11 06:04:49;;;;;;;12.00;10.90;;;20.80;99.90;;;;;;5075783;28;20428;-58
2021/06/11 06:07:15;;;;;;;11.83;10.80;;;20.80;99.90;;;;;;5076649;28;20411;-58
2021/06/11 06:09:41;;;;;;;11.10;10.20;;;20.90;99.90;;;;;;5076349;28;20400;-59
2021/06/11 06:12:07;;;;;;;11.50;10.30;;;20.90;99.90;;;;;;5075711;28;20166;-58
2021/06/11 06:14:33;;;;;;;11.00;10.10;;;21.10;99.90;;;;;;5075517;28;20533;-57
2021/06/11 06:16:59;;;;;;;12.53;11.10;;;21.20;99.90;;;;;;5076211;28;20901;-55
2021/06/11 06:19:25;;;;;;;10.97;9.87;;;21.20;99.90;;;;;;5057603;28;20269;-58
2021/06/11 06:21:51;;;;;;;12.63;11.33;;;21.20;99.90;;;;;;5075824;28;20275;-58
2021/06/11 06:24:17;;;;;;;11.80;10.80;;;21.20;99.90;;;;;;5075740;28;20205;-58
2021/06/11 06:26:43;;;;;;;14.07;12.70;;;21.20;99.90;;;;;;5076251;28;20435;-58
2021/06/11 06:29:08;;;;;;;12.87;11.70;;;21.10;99.90;;;;;;5075133;28;20896;-58
2021/06/11 06:31:34;;;;;;;13.57;12.17;;;21.20;99.90;;;;;;5075583;28;20169;-58
2021/06/11 06:33:59;;;;;;;13.70;12.50;;;21.30;99.90;;;;;;5075532;28;20214;-58
2021/06/11 06:36:25;;;;;;;11.20;10.30;;;21.50;99.90;;;;;;5075912;28;20626;-56
2021/06/11 06:38:52;;;;;;;11.27;10.07;;;21.60;99.90;;;;;;5075808;28;20192;-58
2021/06/11 06:41:18;;;;;;;12.50;11.40;;;21.70;99.90;;;;;;5075451;28;20208;-58
2021/06/11 06:43:44;;;;;;;10.90;9.90;;;21.80;99.90;;;;;;5072660;28;20456;-57
2021/06/11 06:46:10;;;;;;;15.10;13.80;;;21.90;99.90;;;;;;5075543;28;20174;-57
2021/06/11 06:48:36;;;;;;;11.50;10.50;;;22.00;99.90;;;;;;5075377;28;20935;-56
2021/06/11 06:51:02;;;;;;;13.43;12.10;;;22.00;99.90;;;;;;5075759;28;20634;-57
2021/06/11 06:53:28;;;;;;;11.37;10.47;;;22.00;99.90;;;;;;5075565;28;20574;-58
2021/06/11 06:55:54;;;;;;;10.80;9.90;;;21.90;99.90;;;;;;5075362;28;20537;-58
2021/06/11 06:58:19;;;;;;;10.63;9.63;;;22.10;99.90;;;;;;5075165;28;20169;-57
2021/06/11 07:00:45;;;;;;;11.30;10.20;;;22.30;99.90;;;;;;5075434;28;20648;-58
2021/06/11 07:03:10;;;;;;;12.03;10.80;;;22.40;99.90;;;;;;5075275;28;20213;-57
2021/06/11 07:05:36;;;;;;;10.63;9.73;;;22.50;99.90;;;;;;5075337;28;20665;-57
2021/06/11 07:08:02;;;;;;;13.20;11.90;;;22.70;99.90;;;;;;5074897;28;20166;-57
2021/06/11 07:10:27;;;;;;;11.60;10.60;;;22.60;99.90;;;;;;5074337;28;20174;-58
2021/06/11 07:12:53;;;;;;;13.23;11.90;;;22.70;99.90;;;;;;5074979;28;20627;-57
2021/06/11 07:15:19;;;;;;;14.00;12.70;;;22.90;99.90;;;;;;5074461;28;20228;-57
2021/06/11 07:17:44;;;;;;;13.00;11.50;;;22.80;99.90;;;;;;5074996;28;20635;-57
2021/06/11 07:20:10;;;;;;;13.17;11.97;;;22.70;99.90;;;;;;5075482;28;20626;-57
2021/06/11 07:22:37;;;;;;;13.63;12.33;;;22.80;99.90;;;;;;5074652;28;20197;-57
2021/06/11 07:25:05;;;;;;;14.00;12.77;;;22.70;99.90;;;;;;5074830;28;20515;-57
2021/06/11 07:27:32;;;;;;;13.77;12.67;;;22.70;99.90;;;;;;5074579;28;20397;-56
2021/06/11 07:30:07;;;;;;;12.90;11.80;;;22.80;99.90;;;;;;5074757;28;20491;-58
2021/06/11 07:32:33;;;;;;;14.77;13.47;;;22.80;99.90;;;;;;5074836;28;20406;-57
2021/06/11 07:34:59;;;;;;;14.17;12.70;;;22.70;99.90;;;;;;5077046;28;20455;-56
2021/06/11 07:37:24;;;;;;;13.20;12.00;;;22.40;99.90;;;;;;5075103;28;20404;-57
2021/06/11 07:39:50;;;;;;;13.10;12.00;;;22.60;99.90;;;;;;5075163;28;20166;-58
2021/06/11 07:42:17;;;;;;;13.17;11.87;;;22.80;99.90;;;;;;5074809;28;20338;-58
2021/06/11 07:44:43;;;;;;;13.57;12.37;;;22.70;99.90;;;;;;5073161;28;20432;-58
2021/06/11 07:47:09;;;;;;;12.20;10.97;;;22.70;99.90;;;;;;5056466;28;20419;-57
2021/06/11 07:49:35;;;;;;;13.60;12.27;;;22.80;99.90;;;;;;5074801;28;20174;-56
2021/06/11 07:52:01;;;;;;;12.53;11.30;;;22.70;99.90;;;;;;5074123;28;20406;-57
2021/06/11 07:54:27;;;;;;;12.77;11.00;;;22.70;99.90;;;;;;5074599;28;20505;-58
2021/06/11 07:56:53;;;;;;;11.37;10.43;;;23.00;99.90;;;;;;5074454;28;20272;-58
2021/06/11 07:59:20;;;;;;;13.03;11.63;;;23.20;99.90;;;;;;5073679;28;20253;-58
2021/06/11 08:01:46;;;;;;;12.63;11.47;;;23.20;99.90;;;;;;5074326;28;20237;-58
2021/06/11 08:04:12;;;;;;;12.97;11.77;;;23.20;99.90;;;;;;5074001;28;20858;-58
2021/06/11 08:06:38;;;;;;;12.30;11.10;;;23.20;99.90;;;;;;5074041;28;20227;-57
2021/06/11 08:09:04;;;;;;;11.87;10.87;;;23.40;99.90;;;;;;5074333;28;20405;-58
2021/06/11 08:11:30;;;;;;;11.00;10.13;;;23.40;99.90;;;;;;5073724;28;20404;-58
2021/06/11 08:13:55;;;;;;;12.03;10.90;;;23.50;99.90;;;;;;5073294;28;20238;-58
2021/06/11 08:16:21;;;;;;;13.37;12.07;;;23.50;99.90;;;;;;5073959;28;20210;-58
2021/06/11 08:18:46;;;;;;;11.27;10.37;;;23.60;99.90;;;;;;5073840;28;20165;-58
2021/06/11 08:21:12;;;;;;;12.43;11.30;;;23.60;99.90;;;;;;5073450;28;20174;-58
2021/06/11 08:23:38;;;;;;;11.93;10.77;;;23.60;99.90;;;;;;5073602;28;20297;-58
2021/06/11 08:26:04;;;;;;;11.50;10.40;;;23.50;99.90;;;;;;5074048;28;20188;-57
2021/06/11 08:28:29;;;;;;;13.30;11.90;;;23.50;99.90;;;;;;5073062;28;20166;-57
2021/06/11 08:30:55;;;;;;;11.83;10.80;;;23.50;99.90;;;;;;5073879;28;20170;-57
2021/06/11 08:33:21;;;;;;;12.50;11.20;;;23.60;99.90;;;;;;5073425;28;20239;-58
2021/06/11 08:35:46;;;;;;;11.87;10.73;;;23.70;99.90;;;;;;5074540;28;20214;-57
2021/06/11 08:38:13;;;;;;;12.70;11.20;;;23.80;99.90;;;;;;5073273;28;20176;-57
2021/06/11 08:40:38;;;;;;;11.80;10.70;;;23.90;99.90;;;;;;5073604;28;20182;-58
2021/06/11 08:43:05;;;;;;;13.77;12.40;;;24.20;99.90;;;;;;5072693;28;20962;-58
2021/06/11 08:45:31;;;;;;;11.50;10.50;;;24.20;99.90;;;;;;5072797;28;20242;-58
2021/06/11 08:47:58;;;;;;;11.60;10.60;;;24.10;99.90;;;;;;5073469;28;20412;-55
2021/06/11 08:50:29;;;;;;;12.70;11.43;;;24.40;99.90;;;;;;5073163;28;20202;-58
2021/06/11 08:52:56;;;;;;;13.10;11.87;;;24.50;99.90;;;;;;5073409;28;20388;-58
2021/06/11 08:55:22;;;;;;;11.23;10.27;;;24.50;99.90;;;;;;5073530;28;20909;-58
2021/06/11 08:57:49;;;;;;;13.07;11.90;;;24.50;99.90;;;;;;5072907;28;20417;-58
2021/06/11 09:00:15;;;;;;;12.20;11.07;;;24.50;99.90;;;;;;5073145;28;20178;-58
2021/06/11 09:03:10;;;;;;;11.97;10.87;;;24.80;99.90;;;;;;5073353;28;20529;-58
2021/06/11 09:05:43;;;;;;;11.63;10.50;;;24.80;99.90;;;;;;5073277;28;20434;-58
2021/06/11 09:08:18;;;;;;;10.77;9.87;;;24.90;99.90;;;;;;5073846;28;20387;-56
2021/06/11 09:10:45;;;;;;;10.33;9.43;;;24.90;99.90;;;;;;5073167;28;20486;-58
2021/06/11 09:13:27;;;;;;;12.80;11.60;;;24.90;99.90;;;;;;5055444;28;20901;-58
2021/06/11 09:16:15;;;;;;;12.53;11.50;;;25.20;99.90;;;;;;5072941;28;20427;-58
2021/06/11 09:18:56;;;;;;;11.43;10.43;;;25.10;99.90;;;;;;5072993;28;20392;-58
2021/06/11 09:21:27;;;;;;;12.00;10.70;;;25.30;99.90;;;;;;5074014;28;20397;-60
2021/06/11 09:24:30;;;;;;;12.00;10.93;;;25.40;99.90;;;;;;5072823;28;20432;-58
2021/06/11 09:29:26;;;;;;;11.37;10.33;;;25.70;99.90;;;;;;5072331;28;20427;-58
2021/06/11 09:31:53;;;;;;;11.60;10.60;;;25.60;99.90;;;;;;5073709;28;20772;-58
2021/06/11 09:34:27;;;;;;;12.40;11.20;;;25.60;99.90;;;;;;5076645;28;20462;-58
2021/06/11 09:37:27;;;;;;;11.33;10.20;;;25.70;99.90;;;;;;5077083;28;20514;-57
2021/06/11 09:40:00;;;;;;;12.97;11.37;;;25.90;99.90;;;;;;5057919;28;20439;-60
2021/06/11 09:42:36;;;;;;;9.90;9.03;;;26.20;99.90;;;;;;5056074;28;20456;-57
2021/06/11 09:45:05;;;;;;;11.57;10.40;;;26.50;99.90;;;;;;5055773;28;20431;-58
2021/06/11 09:47:38;;;;;;;12.17;11.17;;;26.80;99.90;;;;;;5056597;28;20405;-58
2021/06/11 09:50:05;;;;;;;11.23;10.23;;;26.70;99.70;;;;;;5056913;28;20393;-57
2021/06/11 09:52:35;;;;;;;11.63;10.73;;;26.50;99.90;;;;;;5056202;28;20810;-59
2021/06/11 09:55:05;;;;;;;12.23;11.30;;;26.60;99.90;;;;;;5056748;28;20449;-58
2021/06/11 09:57:33;;;;;;;13.77;12.77;;;26.30;99.30;;;;;;5056499;28;20396;-59
2021/06/11 10:00:00;;;;;;;11.70;10.70;;;26.50;96.90;;;;;;5056355;28;20405;-58
2021/06/11 10:02:29;;;;;;;14.13;12.93;;;26.40;98.40;;;;;;5056403;28;20861;-58
2021/06/11 10:04:55;;;;;;;13.20;12.20;;;26.60;98.10;;;;;;5056503;28;20483;-59
2021/06/11 10:07:21;;;;;;;13.17;12.07;;;26.70;98.60;;;;;;5056307;28;20463;-58
2021/06/11 10:09:47;;;;;;;13.70;12.50;;;26.80;97.60;;;;;;5056121;28;20409;-58
2021/06/11 10:12:13;;;;;;;14.50;13.30;;;27.00;97.00;;;;;;5055940;28;20404;-58
2021/06/11 10:14:39;;;;;;;13.53;12.43;;;26.80;97.00;;;;;;5055682;28;20304;-55
2021/06/11 10:17:06;;;;;;;13.03;11.90;;;26.70;97.80;;;;;;5056109;28;20182;-59
2021/06/11 10:19:31;;;;;;;10.90;10.10;;;26.60;97.40;;;;;;5056120;28;20902;-58
2021/06/11 10:21:57;;;;;;;13.07;11.80;;;26.50;96.80;;;;;;5055707;28;20518;-58
2021/06/11 10:24:23;;;;;;;12.03;11.10;;;26.80;96.40;;;;;;5055712;28;20703;-58
2021/06/11 10:26:50;;;;;;;11.57;10.57;;;26.80;98.30;;;;;;5056364;28;20205;-57
2021/06/11 10:29:18;;;;;;;12.30;11.30;;;27.00;97.70;;;;;;5055293;28;20167;-59
2021/06/11 10:31:44;;;;;;;13.40;12.00;;;26.80;96.60;;;;;;5055840;28;20431;-57
2021/06/11 10:34:10;;;;;;;12.87;11.77;;;26.70;98.60;;;;;;5055327;28;20455;-57
2021/06/11 10:36:44;;;;;;;13.10;12.10;;;26.80;96.50;;;;;;5055603;28;20412;-58
2021/06/11 10:39:09;;;;;;;14.20;13.00;;;27.10;96.00;;;;;;5055476;28;20421;-59
2021/06/11 10:41:54;;;;;;;11.37;10.30;;;27.40;97.20;;;;;;5055492;28;20454;-57
2021/06/11 10:44:41;;;;;;;13.63;12.40;;;27.80;95.40;;;;;;5053959;28;20189;-59
2021/06/11 10:47:15;;;;;;;12.00;11.00;;;27.60;94.90;;;;;;5055850;28;20897;-59
2021/06/11 10:49:56;;;;;;;11.00;9.87;;;27.70;94.80;;;;;;5055578;28;20405;-57
2021/06/11 10:52:33;;;;;;;10.60;9.50;;;27.80;95.50;;;;;;5055145;28;20902;-58
2021/06/11 10:55:14;;;;;;;10.03;9.10;;;27.90;96.20;;;;;;5055281;28;20780;-58
2021/06/11 10:57:43;;;;;;;11.40;10.50;;;28.20;96.90;;;;;;5054912;28;20424;-59
2021/06/11 11:00:26;;;;;;;11.00;10.00;;;28.10;92.80;;;;;;5054955;28;20406;-58
2021/06/11 11:02:54;;;;;;;10.23;9.43;;;27.80;92.70;;;;;;5055227;28;20444;-59
2021/06/11 11:05:27;;;;;;;10.67;9.87;;;27.70;92.50;;;;;;5055026;28;20925;-58
2021/06/11 11:07:53;;;;;;;9.23;8.20;;;27.40;92.60;;;;;;5054968;28;20499;-58
2021/06/11 11:10:39;;;;;;;11.10;10.20;;;27.60;94.50;;;;;;5055669;28;20746;-58
2021/06/11 11:13:11;;;;;;;11.67;10.87;;;28.20;93.20;;;;;;5055031;28;20547;-59
2021/06/11 11:15:43;;;;;;;11.27;10.37;;;28.00;92.10;;;;;;5054773;28;20429;-58
2021/06/11 11:18:11;;;;;;;13.60;12.50;;;28.20;92.20;;;;;;5054750;28;20974;-55
2021/06/11 11:20:40;;;;;;;12.33;11.33;;;28.40;92.70;;;;;;5054774;28;20413;-60
2021/06/11 11:23:17;;;;;;;9.57;8.87;;;28.50;92.60;;;;;;5054619;28;21013;-56
2021/06/11 11:25:43;;;;;;;11.70;10.70;;;29.00;93.40;;;;;;5055135;28;20478;-57
2021/06/11 11:28:10;;;;;;;10.50;9.70;;;29.10;90.90;;;;;;5054409;28;20409;-59
2021/06/11 11:30:38;;;;;;;10.10;9.40;;;29.20;90.00;;;;;;5054447;28;20512;-58
2021/06/11 11:33:17;;;;;;;10.13;9.37;;;30.40;87.70;;;;;;5054571;28;20420;-58
2021/06/11 11:35:51;;;;;;;9.33;8.63;;;31.30;84.40;;;;;;5053309;28;20885;-59
2021/06/11 11:38:16;;;;;;;10.30;9.50;;;32.70;80.50;;;;;;5054860;28;20929;-58
2021/06/11 11:40:42;;;;;;;11.10;10.23;;;32.00;77.80;;;;;;5054566;28;20441;-58
2021/06/11 11:43:08;;;;;;;8.70;8.10;;;30.90;82.00;;;;;;5063826;28;20198;-58
2021/06/11 11:45:34;;;;;;;10.40;9.70;;;30.30;85.80;;;;;;5074342;28;20197;-58
2021/06/11 11:48:12;;;;;;;11.70;10.90;;;29.50;87.90;;;;;;5074386;28;20409;-59
2021/06/11 11:50:37;;;;;;;11.20;10.30;;;30.60;85.40;;;;;;5074358;28;20459;-59
2021/06/11 11:53:04;;;;;;;10.70;8.77;;;32.50;81.40;;;;;;5074369;28;20546;-58
2021/06/11 11:55:31;;;;;;;10.60;9.53;;;33.20;79.30;;;;;;5073946;28;20205;-58
2021/06/11 11:57:57;;;;;;;9.37;8.67;;;33.40;76.80;;;;;;5074161;28;20408;-59
2021/06/11 12:00:23;;;;;;;10.80;9.90;;;35.00;72.20;;;;;;5074391;28;20408;-58
2021/06/11 12:02:49;;;;;;;8.90;8.20;;;34.50;69.70;;;;;;5074153;28;20202;-58
2021/06/11 12:05:15;;;;;;;7.60;7.10;;;35.40;69.40;;;;;;5074006;28;20454;-59
2021/06/11 12:07:41;;;;;;;8.10;7.50;;;36.80;64.40;;;;;;5074131;28;20589;-57
2021/06/11 12:10:09;;;;;;;10.03;9.10;;;36.90;62.90;;;;;;5073851;28;20457;-59
2021/06/11 12:12:34;;;;;;;8.50;7.87;;;35.90;62.20;;;;;;5073565;28;20405;-59
2021/06/11 12:15:00;;;;;;;8.43;7.70;;;36.80;62.10;;;;;;5073750;28;21005;-59
2021/06/11 12:17:26;;;;;;;8.00;7.40;;;37.20;60.90;;;;;;5073857;28;20285;-59
2021/06/11 12:19:51;;;;;;;6.47;6.07;;;37.30;56.10;;;;;;5073721;28;20182;-58
2021/06/11 12:22:17;;;;;;;7.10;6.60;;;37.80;51.30;;;;;;5073827;28;20202;-59
2021/06/11 12:24:44;;;;;;;6.33;5.90;;;38.90;50.50;;;;;;5073717;28;20658;-59
2021/06/11 12:27:10;;;;;;;7.17;6.67;;;38.70;47.80;;;;;;5073836;28;20176;-57
2021/06/11 12:29:36;;;;;;;7.80;7.30;;;39.70;47.20;;;;;;5071114;28;20754;-59
2021/06/11 12:32:02;;;;;;;8.47;7.77;;;39.30;46.00;;;;;;5073432;28;20411;-60
2021/06/11 12:34:28;;;;;;;8.40;7.80;;;38.70;48.30;;;;;;5073136;28;20221;-59
2021/06/11 12:36:53;;;;;;;8.53;7.90;;;38.30;48.10;;;;;;5073130;28;20404;-60
2021/06/11 12:39:19;;;;;;;7.13;6.60;;;38.40;48.80;;;;;;5073293;28;20215;-60